Time;durP1;ratioP1;P1;durP2;ratioP2;P2;SDS_P1;SDS_P2;PMS_P1;PMS_P2;Temp;Humidity;BMP_temperature;BMP_pressure;BME280_temperature;BME280_humidity;BME280_pressure;Samples;Min_cycle;Max_cycle;Signal;HPM_P1;HPM_P2
2022/02/28 00:00:36;;;;;;;4.15;2.20;;;;;;;;;;1693758;28;21570;-53
2022/02/28 00:01:29;;;;;;;7.28;2.17;;;;;;;;;;1693471;28;21500;-52
2022/02/28 00:02:20;;;;;;;3.15;1.92;;;;;;;;;;1694232;28;21549;-52
2022/02/28 00:03:12;;;;;;;3.15;2.50;;;;;;;;;;1694253;28;22017;-52
2022/02/28 00:04:04;;;;;;;5.07;2.40;;;;;;;;;;1691487;28;21887;-52
2022/02/28 00:04:56;;;;;;;6.90;2.28;;;;;;;;;;1691004;29;21564;-53
2022/02/28 00:05:48;;;;;;;5.32;1.98;;;;;;;;;;1692541;28;21562;-51
2022/02/28 00:06:40;;;;;;;2.83;2.42;;;;;;;;;;1692644;28;21512;-52
2022/02/28 00:07:31;;;;;;;3.08;2.30;;;;;;;;;;1691747;28;21504;-54
2022/02/28 00:08:25;;;;;;;6.95;2.08;;;;;;;;;;1691740;28;21552;-50
2022/02/28 00:09:16;;;;;;;11.23;2.08;;;;;;;;;;1692923;28;21513;-52
2022/02/28 00:10:09;;;;;;;5.32;2.22;;;;;;;;;;1691933;28;21954;-54
2022/02/28 00:11:01;;;;;;;5.10;2.42;;;;;;;;;;1690569;28;21762;-54
2022/02/28 00:11:53;;;;;;;9.77;2.30;;;;;;;;;;1693998;28;21707;-54
2022/02/28 00:12:44;;;;;;;7.03;2.30;;;;;;;;;;1691798;28;22159;-51
2022/02/28 00:13:37;;;;;;;3.70;2.30;;;;;;;;;;1691103;28;21492;-53
2022/02/28 00:14:28;;;;;;;9.57;2.65;;;;;;;;;;1694130;28;22041;-53
2022/02/28 00:15:21;;;;;;;2.65;2.00;;;;;;;;;;1691762;28;21560;-54
2022/02/28 00:16:12;;;;;;;2.55;2.10;;;;;;;;;;1690852;28;21526;-52
2022/02/28 00:17:06;;;;;;;9.65;2.33;;;;;;;;;;1694124;28;21522;-55
2022/02/28 00:17:57;;;;;;;2.53;1.92;;;;;;;;;;1691534;28;21567;-51
2022/02/28 00:18:49;;;;;;;8.00;2.35;;;;;;;;;;1691487;28;21627;-55
2022/02/28 00:19:40;;;;;;;5.43;2.33;;;;;;;;;;1691258;28;21564;-51
2022/02/28 00:20:33;;;;;;;3.47;2.20;;;;;;;;;;1691460;28;21911;-53
2022/02/28 00:21:24;;;;;;;10.63;1.95;;;;;;;;;;1693878;28;21599;-51
2022/02/28 00:22:16;;;;;;;5.82;2.70;;;;;;;;;;1690875;28;21697;-54
2022/02/28 00:23:09;;;;;;;4.78;2.35;;;;;;;;;;1693526;28;21598;-53
2022/02/28 00:24:03;;;;;;;2.65;2.25;;;;;;;;;;1691008;29;21504;-51
2022/02/28 00:24:54;;;;;;;4.90;2.58;;;;;;;;;;1691424;28;21566;-52
2022/02/28 00:25:46;;;;;;;3.78;2.28;;;;;;;;;;1693054;28;21643;-53
2022/02/28 00:26:37;;;;;;;7.85;2.35;;;;;;;;;;1692157;28;21872;-53
2022/02/28 00:27:30;;;;;;;2.47;1.90;;;;;;;;;;1691826;28;22053;-53
2022/02/28 00:28:21;;;;;;;2.05;1.85;;;;;;;;;;1691914;28;21499;-53
2022/02/28 00:29:14;;;;;;;5.15;2.40;;;;;;;;;;1685685;29;21512;-52
2022/02/28 00:30:08;;;;;;;4.50;2.08;;;;;;;;;;1684657;29;21557;-53
2022/02/28 00:31:00;;;;;;;5.05;1.98;;;;;;;;;;1689375;28;21644;-53
2022/02/28 00:31:52;;;;;;;3.60;2.05;;;;;;;;;;1693657;28;21586;-52
2022/02/28 00:32:44;;;;;;;2.53;2.08;;;;;;;;;;1691660;28;21532;-53
2022/02/28 00:33:35;;;;;;;4.65;2.40;;;;;;;;;;1691031;29;21519;-53
2022/02/28 00:34:28;;;;;;;6.10;2.45;;;;;;;;;;1690963;29;21615;-53
2022/02/28 00:35:19;;;;;;;3.35;1.85;;;;;;;;;;1691391;28;21684;-53
2022/02/28 00:36:11;;;;;;;4.55;2.28;;;;;;;;;;1693850;28;21531;-52
2022/02/28 00:37:03;;;;;;;6.97;2.58;;;;;;;;;;1691256;28;22058;-53
2022/02/28 00:37:55;;;;;;;4.05;1.98;;;;;;;;;;1691016;28;21540;-50
2022/02/28 00:38:46;;;;;;;3.15;2.05;;;;;;;;;;1694010;28;21917;-53
2022/02/28 00:39:40;;;;;;;2.00;1.75;;;;;;;;;;1690967;29;21501;-53
2022/02/28 00:40:31;;;;;;;3.08;2.10;;;;;;;;;;1694050;28;21561;-53
2022/02/28 00:41:23;;;;;;;2.00;1.80;;;;;;;;;;1693807;28;21636;-54
2022/02/28 00:42:15;;;;;;;5.05;2.00;;;;;;;;;;1690859;29;21696;-53
2022/02/28 00:43:07;;;;;;;3.72;1.73;;;;;;;;;;1691706;28;21516;-53
2022/02/28 00:43:58;;;;;;;2.53;1.48;;;;;;;;;;1690996;28;22762;-55
2022/02/28 00:44:51;;;;;;;4.88;1.88;;;;;;;;;;1693871;28;21500;-53
2022/02/28 00:45:43;;;;;;;2.70;1.80;;;;;;;;;;1690968;28;21891;-48
2022/02/28 00:46:36;;;;;;;2.80;2.10;;;;;;;;;;1690969;28;21582;-50
2022/02/28 00:47:27;;;;;;;4.75;2.10;;;;;;;;;;1693876;28;21553;-52
2022/02/28 00:48:19;;;;;;;3.88;1.58;;;;;;;;;;1691171;28;21549;-53
2022/02/28 00:49:10;;;;;;;2.40;1.70;;;;;;;;;;1691239;28;21803;-53
2022/02/28 00:50:04;;;;;;;1.77;1.67;;;;;;;;;;1693891;28;22021;-51
2022/02/28 00:50:55;;;;;;;3.58;2.13;;;;;;;;;;1690892;28;21798;-50
2022/02/28 00:51:47;;;;;;;2.80;1.90;;;;;;;;;;1694352;28;21547;-53
2022/02/28 00:52:39;;;;;;;1.52;1.42;;;;;;;;;;1696350;28;21538;-53
2022/02/28 00:53:31;;;;;;;2.40;1.73;;;;;;;;;;1690276;29;21499;-52
2022/02/28 00:54:23;;;;;;;3.55;1.77;;;;;;;;;;1685431;29;21617;-53
2022/02/28 00:55:16;;;;;;;2.05;1.45;;;;;;;;;;1690061;29;21681;-54
2022/02/28 00:56:07;;;;;;;4.72;1.75;;;;;;;;;;1691530;28;22102;-51
2022/02/28 00:57:00;;;;;;;1.70;1.60;;;;;;;;;;1691135;28;21623;-51
2022/02/28 00:57:51;;;;;;;4.47;2.10;;;;;;;;;;1693264;28;21650;-54
2022/02/28 00:58:43;;;;;;;2.40;1.35;;;;;;;;;;1691726;28;21573;-54
2022/02/28 00:59:34;;;;;;;1.60;1.48;;;;;;;;;;1691431;28;21966;-51
2022/02/28 01:00:27;;;;;;;4.78;1.80;;;;;;;;;;1693117;28;21536;-53
2022/02/28 01:01:18;;;;;;;6.43;1.55;;;;;;;;;;1692718;28;21580;-54
2022/02/28 01:02:10;;;;;;;4.25;1.90;;;;;;;;;;1690883;29;21728;-50
2022/02/28 01:03:02;;;;;;;3.42;1.60;;;;;;;;;;1691322;28;21605;-54
2022/02/28 01:03:55;;;;;;;2.05;1.85;;;;;;;;;;1693266;28;21596;-54
2022/02/28 01:04:46;;;;;;;6.38;1.80;;;;;;;;;;1696310;28;21574;-54
2022/02/28 01:05:38;;;;;;;2.63;1.83;;;;;;;;;;1696300;28;21486;-50
2022/02/28 01:06:29;;;;;;;2.75;1.95;;;;;;;;;;1692061;28;21559;-50
2022/02/28 01:07:22;;;;;;;1.88;1.70;;;;;;;;;;1692435;28;21534;-52
2022/02/28 01:08:13;;;;;;;2.55;1.85;;;;;;;;;;1691613;28;21599;-50
2022/02/28 01:09:06;;;;;;;4.40;2.15;;;;;;;;;;1690804;28;22003;-52
2022/02/28 01:09:57;;;;;;;2.35;1.65;;;;;;;;;;1693980;28;21594;-50
2022/02/28 01:10:52;;;;;;;1.42;1.33;;;;;;;;;;1693170;28;22146;-52
2022/02/28 01:11:43;;;;;;;2.10;1.60;;;;;;;;;;1695225;28;21554;-52
2022/02/28 01:12:35;;;;;;;2.95;1.40;;;;;;;;;;1692951;28;21484;-53
2022/02/28 01:13:26;;;;;;;2.03;1.55;;;;;;;;;;1696327;28;21575;-52
2022/02/28 01:14:19;;;;;;;1.60;1.50;;;;;;;;;;1695318;28;22129;-52
2022/02/28 01:15:12;;;;;;;1.40;1.30;;;;;;;;;;1693439;28;21500;-54
2022/02/28 01:16:05;;;;;;;4.20;1.38;;;;;;;;;;1690454;28;21566;-52
2022/02/28 01:16:56;;;;;;;2.00;1.48;;;;;;;;;;1690932;28;21888;-52
2022/02/28 01:17:50;;;;;;;1.95;1.75;;;;;;;;;;1690668;28;21555;-53
2022/02/28 01:18:41;;;;;;;3.67;1.98;;;;;;;;;;1694313;28;21576;-51
2022/02/28 01:19:34;;;;;;;2.75;1.48;;;;;;;;;;1696376;28;21629;-51
2022/02/28 01:20:25;;;;;;;4.55;1.60;;;;;;;;;;1693168;28;22010;-52
2022/02/28 01:21:17;;;;;;;1.52;1.42;;;;;;;;;;1693621;28;21538;-53
2022/02/28 01:22:11;;;;;;;2.13;1.92;;;;;;;;;;1690694;28;21607;-53
2022/02/28 01:23:03;;;;;;;1.63;1.52;;;;;;;;;;1691170;28;22046;-52
2022/02/28 01:23:55;;;;;;;1.73;1.63;;;;;;;;;;1693448;28;21554;-53
2022/02/28 01:24:47;;;;;;;1.48;1.38;;;;;;;;;;1691256;28;21610;-52
2022/02/28 01:25:38;;;;;;;4.25;1.30;;;;;;;;;;1690992;28;22071;-53
2022/02/28 01:26:32;;;;;;;1.42;1.33;;;;;;;;;;1692426;28;21723;-55
2022/02/28 01:27:23;;;;;;;1.90;1.40;;;;;;;;;;1691824;28;22071;-52
2022/02/28 01:28:14;;;;;;;1.50;1.40;;;;;;;;;;1684508;29;21920;-52
2022/02/28 01:29:06;;;;;;;4.20;1.50;;;;;;;;;;1685295;29;22071;-51
2022/02/28 01:29:58;;;;;;;1.45;1.35;;;;;;;;;;1690314;28;21560;-53
2022/02/28 01:30:50;;;;;;;1.58;1.35;;;;;;;;;;1693137;28;21505;-53
2022/02/28 01:31:41;;;;;;;1.30;1.20;;;;;;;;;;1693648;28;22152;-53
2022/02/28 01:32:34;;;;;;;1.40;1.30;;;;;;;;;;1690925;28;21493;-53
2022/02/28 01:33:25;;;;;;;1.77;1.40;;;;;;;;;;1692939;28;21629;-50
2022/02/28 01:34:17;;;;;;;4.72;1.40;;;;;;;;;;1696777;28;22063;-54
2022/02/28 01:35:10;;;;;;;1.73;1.30;;;;;;;;;;1695667;28;21565;-55
2022/02/28 01:36:02;;;;;;;4.63;1.45;;;;;;;;;;1693031;28;21613;-53
2022/02/28 01:36:53;;;;;;;12.60;1.52;;;;;;;;;;1696427;28;21525;-51
2022/02/28 01:37:46;;;;;;;3.22;1.30;;;;;;;;;;1696081;28;22001;-54
2022/02/28 01:38:37;;;;;;;1.77;1.23;;;;;;;;;;1692256;28;22055;-54
2022/02/28 01:39:29;;;;;;;2.90;1.35;;;;;;;;;;1692089;28;21608;-51
2022/02/28 01:40:21;;;;;;;3.13;1.42;;;;;;;;;;1691324;28;21596;-52
2022/02/28 01:41:13;;;;;;;2.72;1.10;;;;;;;;;;1691622;28;22042;-54
2022/02/28 01:42:06;;;;;;;1.25;1.02;;;;;;;;;;1692341;28;21581;-51
2022/02/28 01:42:58;;;;;;;2.00;1.42;;;;;;;;;;1691325;28;21600;-52
2022/02/28 01:43:49;;;;;;;2.88;1.77;;;;;;;;;;1691315;28;21494;-54
2022/02/28 01:44:42;;;;;;;1.67;1.00;;;;;;;;;;1693067;28;21933;-52
2022/02/28 01:45:34;;;;;;;3.53;1.42;;;;;;;;;;1691435;28;21698;-52
2022/02/28 01:46:26;;;;;;;1.60;1.20;;;;;;;;;;1692821;28;21716;-54
2022/02/28 01:47:18;;;;;;;1.20;1.10;;;;;;;;;;1694219;28;21520;-53
2022/02/28 01:48:10;;;;;;;1.30;1.15;;;;;;;;;;1696175;28;21552;-54
2022/02/28 01:49:02;;;;;;;2.25;1.40;;;;;;;;;;1696077;28;21532;-50
2022/02/28 01:49:54;;;;;;;1.48;1.33;;;;;;;;;;1693000;28;21523;-51
2022/02/28 01:50:45;;;;;;;1.52;1.30;;;;;;;;;;1691404;28;21655;-51
2022/02/28 01:51:39;;;;;;;5.07;1.23;;;;;;;;;;1693799;28;21639;-53
2022/02/28 01:52:30;;;;;;;2.05;1.15;;;;;;;;;;1690207;28;21525;-53
2022/02/28 01:53:23;;;;;;;1.17;1.00;;;;;;;;;;1693786;28;21543;-52
2022/02/28 01:54:14;;;;;;;3.78;1.27;;;;;;;;;;1690639;29;21525;-53
2022/02/28 01:55:08;;;;;;;4.35;1.92;;;;;;;;;;1691290;28;22033;-52
2022/02/28 01:55:59;;;;;;;3.53;1.10;;;;;;;;;;1691175;28;21720;-51
2022/02/28 01:56:52;;;;;;;1.77;1.30;;;;;;;;;;1695005;28;22048;-53
2022/02/28 01:57:45;;;;;;;1.15;1.02;;;;;;;;;;1690749;28;21618;-52
2022/02/28 01:58:39;;;;;;;3.83;1.27;;;;;;;;;;1690799;28;21537;-52
2022/02/28 01:59:31;;;;;;;4.97;1.50;;;;;;;;;;1690685;29;21542;-53
2022/02/28 02:00:26;;;;;;;3.03;1.30;;;;;;;;;;1690606;28;21587;-54
2022/02/28 02:01:17;;;;;;;4.07;1.20;;;;;;;;;;1693658;28;21701;-53
2022/02/28 02:02:10;;;;;;;2.40;1.30;;;;;;;;;;1690548;28;22144;-53
2022/02/28 02:03:02;;;;;;;1.20;1.00;;;;;;;;;;1691266;28;21876;-54
2022/02/28 02:03:54;;;;;;;1.75;1.25;;;;;;;;;;1693591;28;21524;-54
2022/02/28 02:04:45;;;;;;;2.78;1.30;;;;;;;;;;1691354;28;21558;-54
2022/02/28 02:05:38;;;;;;;1.42;1.20;;;;;;;;;;1690336;28;21688;-53
2022/02/28 02:06:29;;;;;;;1.38;1.27;;;;;;;;;;1693402;28;21582;-54
2022/02/28 02:07:21;;;;;;;1.20;1.00;;;;;;;;;;1691211;28;21533;-49
2022/02/28 02:08:12;;;;;;;1.67;1.00;;;;;;;;;;1690536;29;21618;-53
2022/02/28 02:09:06;;;;;;;2.22;1.50;;;;;;;;;;1690302;28;21523;-51
2022/02/28 02:09:58;;;;;;;1.63;1.00;;;;;;;;;;1693619;28;21534;-53
2022/02/28 02:10:51;;;;;;;2.78;1.15;;;;;;;;;;1690610;28;21733;-52
2022/02/28 02:11:42;;;;;;;1.42;1.20;;;;;;;;;;1686471;29;21577;-53
2022/02/28 02:12:35;;;;;;;1.63;1.08;;;;;;;;;;1684093;29;21921;-53
2022/02/28 02:13:30;;;;;;;1.92;1.73;;;;;;;;;;1687838;28;21619;-53
2022/02/28 02:14:22;;;;;;;1.20;1.00;;;;;;;;;;1692376;28;21797;-53
2022/02/28 02:15:15;;;;;;;1.88;1.10;;;;;;;;;;1697154;28;21543;-53
2022/02/28 02:16:07;;;;;;;1.85;1.05;;;;;;;;;;1688887;29;21866;-53
2022/02/28 02:16:59;;;;;;;1.80;1.65;;;;;;;;;;1689853;29;22007;-53
2022/02/28 02:17:53;;;;;;;1.23;1.10;;;;;;;;;;1693609;28;21507;-53
2022/02/28 02:18:45;;;;;;;1.50;1.40;;;;;;;;;;1693213;28;21572;-51
2022/02/28 02:19:38;;;;;;;1.25;1.00;;;;;;;;;;1690877;28;21715;-54
2022/02/28 02:20:36;;;;;;;2.15;1.30;;;;;;;;;;1691027;28;21559;-54
2022/02/28 02:21:29;;;;;;;1.27;1.17;;;;;;;;;;1691394;28;21642;-54
2022/02/28 02:22:21;;;;;;;3.10;1.20;;;;;;;;;;1686200;29;21514;-54
2022/02/28 02:23:15;;;;;;;1.70;1.52;;;;;;;;;;1684166;29;21496;-49
2022/02/28 02:24:06;;;;;;;3.55;1.38;;;;;;;;;;1688203;29;21551;-49
2022/02/28 02:24:58;;;;;;;4.82;1.30;;;;;;;;;;1692822;28;21552;-48
2022/02/28 02:25:49;;;;;;;2.15;1.30;;;;;;;;;;1693359;28;21595;-53
2022/02/28 02:26:42;;;;;;;2.53;1.55;;;;;;;;;;1695816;28;21514;-55
2022/02/28 02:27:33;;;;;;;1.70;1.15;;;;;;;;;;1692610;28;21569;-53
2022/02/28 02:28:26;;;;;;;1.40;1.25;;;;;;;;;;1693394;28;22725;-54
2022/02/28 02:29:17;;;;;;;4.38;1.50;;;;;;;;;;1691291;28;21515;-54
2022/02/28 02:30:10;;;;;;;1.50;1.10;;;;;;;;;;1690232;29;22101;-54
2022/02/28 02:31:04;;;;;;;2.17;1.17;;;;;;;;;;1690956;28;22133;-52
2022/02/28 02:31:59;;;;;;;1.25;1.15;;;;;;;;;;1692486;28;21591;-52
2022/02/28 02:32:50;;;;;;;3.70;1.10;;;;;;;;;;1691159;28;21577;-53
2022/02/28 02:33:43;;;;;;;1.52;1.30;;;;;;;;;;1690391;29;21533;-50
2022/02/28 02:34:35;;;;;;;4.20;1.27;;;;;;;;;;1691901;29;21532;-53
2022/02/28 02:35:28;;;;;;;10.55;1.13;;;;;;;;;;1696904;29;21574;-53
2022/02/28 02:36:22;;;;;;;1.67;1.10;;;;;;;;;;1696281;29;21525;-53
2022/02/28 02:37:15;;;;;;;5.40;1.30;;;;;;;;;;1695031;29;21931;-51
2022/02/28 02:38:07;;;;;;;5.32;1.10;;;;;;;;;;1693373;29;21581;-53
2022/02/28 02:38:58;;;;;;;2.45;1.50;;;;;;;;;;1690341;29;21545;-51
2022/02/28 02:39:50;;;;;;;1.45;0.90;;;;;;;;;;1690482;29;21605;-53
2022/02/28 02:40:42;;;;;;;2.28;1.20;;;;;;;;;;1690172;29;21595;-52
2022/02/28 02:41:34;;;;;;;1.42;1.33;;;;;;;;;;1693396;29;22099;-51
2022/02/28 02:42:25;;;;;;;1.52;1.00;;;;;;;;;;1691039;29;21575;-52
2022/02/28 02:43:18;;;;;;;3.30;1.20;;;;;;;;;;1690621;29;21732;-50
2022/02/28 02:44:09;;;;;;;3.97;1.10;;;;;;;;;;1693541;29;21576;-52
2022/02/28 02:45:01;;;;;;;3.78;1.20;;;;;;;;;;1691122;29;21730;-51
2022/02/28 02:45:53;;;;;;;1.80;1.02;;;;;;;;;;1690582;29;21585;-51
2022/02/28 02:46:46;;;;;;;1.20;1.10;;;;;;;;;;1692302;29;21480;-53
2022/02/28 02:47:38;;;;;;;2.92;1.38;;;;;;;;;;1696923;29;21535;-50
2022/02/28 02:48:30;;;;;;;4.95;1.35;;;;;;;;;;1691642;29;21548;-52
2022/02/28 02:49:21;;;;;;;1.92;1.08;;;;;;;;;;1683429;29;22226;-52
2022/02/28 02:50:13;;;;;;;4.30;1.25;;;;;;;;;;1683714;29;22023;-52
2022/02/28 02:51:04;;;;;;;3.33;1.45;;;;;;;;;;1688968;29;21599;-53
2022/02/28 02:51:59;;;;;;;1.80;0.95;;;;;;;;;;1691899;29;21507;-51
2022/02/28 02:52:50;;;;;;;6.95;1.25;;;;;;;;;;1691254;29;21567;-53
2022/02/28 02:53:42;;;;;;;5.20;1.30;;;;;;;;;;1689967;29;21675;-52
2022/02/28 02:54:33;;;;;;;3.35;1.05;;;;;;;;;;1693201;29;22253;-51
2022/02/28 02:55:25;;;;;;;4.35;1.40;;;;;;;;;;1690466;29;21545;-54
2022/02/28 02:56:18;;;;;;;4.90;1.45;;;;;;;;;;1690886;29;21528;-52
2022/02/28 02:57:10;;;;;;;9.85;2.15;;;;;;;;;;1690292;29;21512;-53
2022/02/28 02:58:01;;;;;;;3.63;1.20;;;;;;;;;;1690308;29;21869;-52
2022/02/28 02:58:54;;;;;;;13.50;1.85;;;;;;;;;;1683076;29;21519;-53
2022/02/28 02:59:45;;;;;;;8.35;1.48;;;;;;;;;;1686125;29;21951;-53
2022/02/28 03:00:37;;;;;;;4.18;1.45;;;;;;;;;;1687718;29;22020;-53
2022/02/28 03:01:29;;;;;;;2.95;1.60;;;;;;;;;;1690166;29;21504;-53
2022/02/28 03:02:21;;;;;;;6.95;1.35;;;;;;;;;;1693131;29;21637;-52
2022/02/28 03:03:19;;;;;;;4.10;1.40;;;;;;;;;;1691151;29;21626;-52
2022/02/28 03:04:11;;;;;;;3.80;1.60;;;;;;;;;;1690476;29;21916;-52
2022/02/28 03:05:03;;;;;;;2.45;1.40;;;;;;;;;;1689879;29;21602;-52
2022/02/28 03:05:55;;;;;;;2.25;1.33;;;;;;;;;;1692502;29;22108;-53
2022/02/28 03:06:49;;;;;;;11.50;1.30;;;;;;;;;;1690805;29;21634;-53
2022/02/28 03:07:43;;;;;;;5.07;1.35;;;;;;;;;;1691032;29;21539;-53
2022/02/28 03:08:34;;;;;;;4.68;1.45;;;;;;;;;;1690450;29;22079;-52
2022/02/28 03:09:27;;;;;;;2.03;1.20;;;;;;;;;;1690401;29;21509;-53
2022/02/28 03:10:19;;;;;;;6.68;1.27;;;;;;;;;;1692761;29;21560;-51
2022/02/28 03:11:11;;;;;;;2.13;1.60;;;;;;;;;;1692716;29;21506;-53
2022/02/28 03:12:03;;;;;;;8.10;1.30;;;;;;;;;;1690674;29;21547;-53
2022/02/28 03:12:55;;;;;;;2.70;1.33;;;;;;;;;;1693763;29;21572;-52
2022/02/28 03:13:46;;;;;;;1.75;1.13;;;;;;;;;;1695688;29;22104;-52
2022/02/28 03:14:39;;;;;;;4.05;1.02;;;;;;;;;;1692614;29;21813;-52
2022/02/28 03:15:31;;;;;;;1.63;1.20;;;;;;;;;;1693321;29;22050;-53
2022/02/28 03:16:23;;;;;;;2.08;1.30;;;;;;;;;;1690909;29;22266;-53
2022/02/28 03:17:14;;;;;;;1.70;0.85;;;;;;;;;;1690242;29;21969;-52
2022/02/28 03:18:07;;;;;;;4.70;1.55;;;;;;;;;;1692741;29;21860;-52
2022/02/28 03:18:58;;;;;;;1.45;0.82;;;;;;;;;;1695298;29;21501;-53
2022/02/28 03:19:50;;;;;;;4.20;1.25;;;;;;;;;;1695832;29;21584;-54
2022/02/28 03:20:41;;;;;;;3.75;1.00;;;;;;;;;;1693262;29;21676;-53
2022/02/28 03:21:33;;;;;;;6.97;1.17;;;;;;;;;;1693055;29;21593;-53
2022/02/28 03:22:25;;;;;;;1.92;1.10;;;;;;;;;;1692655;29;21594;-52
2022/02/28 03:23:18;;;;;;;3.03;1.25;;;;;;;;;;1690886;29;21593;-53
2022/02/28 03:24:10;;;;;;;1.95;1.20;;;;;;;;;;1691135;29;21564;-53
2022/02/28 03:25:01;;;;;;;3.60;1.42;;;;;;;;;;1690314;29;21666;-54
2022/02/28 03:25:55;;;;;;;1.73;1.10;;;;;;;;;;1693252;29;22035;-53
2022/02/28 03:26:46;;;;;;;1.40;0.90;;;;;;;;;;1690916;29;21508;-54
2022/02/28 03:27:39;;;;;;;1.80;1.25;;;;;;;;;;1690143;29;21582;-51
2022/02/28 03:28:30;;;;;;;5.13;1.20;;;;;;;;;;1690242;29;21570;-53
2022/02/28 03:29:22;;;;;;;5.63;1.08;;;;;;;;;;1690545;29;21671;-53
2022/02/28 03:30:13;;;;;;;4.38;0.98;;;;;;;;;;1693155;29;21540;-52
2022/02/28 03:31:05;;;;;;;3.45;1.17;;;;;;;;;;1691311;29;21512;-50
2022/02/28 03:31:57;;;;;;;2.67;1.20;;;;;;;;;;1691758;29;21961;-51
2022/02/28 03:32:49;;;;;;;1.70;1.10;;;;;;;;;;1693110;29;21692;-53
2022/02/28 03:33:41;;;;;;;5.47;1.55;;;;;;;;;;1690191;29;21642;-53
2022/02/28 03:34:33;;;;;;;1.48;1.30;;;;;;;;;;1695854;29;21928;-53
2022/02/28 03:35:24;;;;;;;1.73;1.63;;;;;;;;;;1693806;29;21667;-52
2022/02/28 03:36:16;;;;;;;6.85;1.30;;;;;;;;;;1693195;29;21637;-54
2022/02/28 03:37:08;;;;;;;6.88;1.58;;;;;;;;;;1690873;29;21639;-53
2022/02/28 03:38:00;;;;;;;5.05;1.40;;;;;;;;;;1696828;29;21503;-53
2022/02/28 03:38:53;;;;;;;2.03;1.13;;;;;;;;;;1697072;28;22070;-51
2022/02/28 03:39:45;;;;;;;4.30;1.48;;;;;;;;;;1695651;28;21558;-53
2022/02/28 03:40:38;;;;;;;12.45;1.40;;;;;;;;;;1693120;28;21897;-52
2022/02/28 03:41:30;;;;;;;4.90;1.50;;;;;;;;;;1694267;28;21592;-53
2022/02/28 03:42:21;;;;;;;8.02;1.38;;;;;;;;;;1691757;28;21546;-52
2022/02/28 03:43:13;;;;;;;18.75;1.67;;;;;;;;;;1691379;28;22031;-53
2022/02/28 03:44:05;;;;;;;4.72;1.92;;;;;;;;;;1694310;28;21554;-52
2022/02/28 03:44:57;;;;;;;8.45;1.88;;;;;;;;;;1692913;28;21900;-52
2022/02/28 03:45:49;;;;;;;4.40;1.15;;;;;;;;;;1693722;28;21669;-54
2022/02/28 03:46:41;;;;;;;5.97;1.25;;;;;;;;;;1694165;28;21558;-51
2022/02/28 03:47:33;;;;;;;4.55;1.70;;;;;;;;;;1691900;28;21543;-53
2022/02/28 03:48:25;;;;;;;10.23;1.38;;;;;;;;;;1691327;29;21969;-51
2022/02/28 03:49:17;;;;;;;11.98;1.38;;;;;;;;;;1691243;28;21619;-52
2022/02/28 03:50:10;;;;;;;6.80;1.70;;;;;;;;;;1694335;28;22289;-53
2022/02/28 03:51:04;;;;;;;3.55;1.70;;;;;;;;;;1691676;28;21945;-51
2022/02/28 03:51:56;;;;;;;3.72;1.30;;;;;;;;;;1692989;28;21537;-53
2022/02/28 03:52:47;;;;;;;2.20;1.30;;;;;;;;;;1691960;28;21602;-51
2022/02/28 03:53:39;;;;;;;2.17;1.42;;;;;;;;;;1691355;28;21540;-53
2022/02/28 03:54:32;;;;;;;6.93;1.70;;;;;;;;;;1694337;28;21530;-49
2022/02/28 03:55:25;;;;;;;2.92;1.35;;;;;;;;;;1691644;28;21949;-53
2022/02/28 03:56:16;;;;;;;2.67;1.30;;;;;;;;;;1691237;28;22008;-50
2022/02/28 03:57:08;;;;;;;5.03;1.35;;;;;;;;;;1690744;28;21726;-50
2022/02/28 03:57:59;;;;;;;9.90;1.70;;;;;;;;;;1694192;28;21615;-52
2022/02/28 03:58:52;;;;;;;10.60;1.20;;;;;;;;;;1691241;28;21489;-50
2022/02/28 03:59:43;;;;;;;9.65;1.70;;;;;;;;;;1696809;28;21514;-50
2022/02/28 04:00:35;;;;;;;9.07;1.48;;;;;;;;;;1694858;28;21576;-50
2022/02/28 04:01:26;;;;;;;2.17;1.63;;;;;;;;;;1692552;28;21514;-53
2022/02/28 04:02:19;;;;;;;3.40;1.35;;;;;;;;;;1692612;28;21670;-49
2022/02/28 04:03:10;;;;;;;7.18;1.52;;;;;;;;;;1692065;28;21595;-53
2022/02/28 04:04:04;;;;;;;4.00;1.45;;;;;;;;;;1691282;29;21975;-53
2022/02/28 04:04:55;;;;;;;5.15;2.00;;;;;;;;;;1691079;29;21550;-53
2022/02/28 04:05:47;;;;;;;19.55;1.63;;;;;;;;;;1692114;28;22293;-53
2022/02/28 04:06:40;;;;;;;5.78;1.63;;;;;;;;;;1692778;28;21613;-53
2022/02/28 04:07:32;;;;;;;5.05;1.70;;;;;;;;;;1691864;28;21617;-53
2022/02/28 04:08:24;;;;;;;2.10;1.50;;;;;;;;;;1692016;28;21516;-53
2022/02/28 04:09:17;;;;;;;3.15;1.70;;;;;;;;;;1693147;28;21906;-51
2022/02/28 04:10:10;;;;;;;5.88;1.50;;;;;;;;;;1691942;28;21676;-49
2022/02/28 04:11:02;;;;;;;3.13;1.35;;;;;;;;;;1691494;28;21582;-52
2022/02/28 04:11:53;;;;;;;4.35;1.27;;;;;;;;;;1692089;28;21672;-50
2022/02/28 04:12:45;;;;;;;3.30;1.60;;;;;;;;;;1693467;28;21584;-54
2022/02/28 04:13:37;;;;;;;5.95;1.77;;;;;;;;;;1691969;28;21549;-53
2022/02/28 04:14:29;;;;;;;5.00;1.50;;;;;;;;;;1691283;29;21547;-53
2022/02/28 04:15:20;;;;;;;5.43;1.65;;;;;;;;;;1691170;28;21540;-52
2022/02/28 04:16:12;;;;;;;6.30;1.85;;;;;;;;;;1694006;28;21558;-52
2022/02/28 04:17:04;;;;;;;3.80;1.60;;;;;;;;;;1691797;28;21554;-52
2022/02/28 04:17:56;;;;;;;2.35;1.65;;;;;;;;;;1691129;29;21658;-50
2022/02/28 04:18:48;;;;;;;4.80;1.60;;;;;;;;;;1684056;29;21515;-50
2022/02/28 04:19:40;;;;;;;2.90;1.42;;;;;;;;;;1684274;29;21705;-52
2022/02/28 04:20:31;;;;;;;4.60;1.27;;;;;;;;;;1689662;28;22015;-52
2022/02/28 04:21:24;;;;;;;2.17;1.50;;;;;;;;;;1693221;28;21539;-51
2022/02/28 04:22:15;;;;;;;3.13;1.75;;;;;;;;;;1695100;28;21789;-52
2022/02/28 04:23:08;;;;;;;7.13;1.80;;;;;;;;;;1694053;28;21594;-52
2022/02/28 04:23:59;;;;;;;4.45;1.70;;;;;;;;;;1690937;28;22189;-52
2022/02/28 04:24:51;;;;;;;4.32;1.58;;;;;;;;;;1691662;28;21558;-53
2022/02/28 04:25:44;;;;;;;3.10;1.70;;;;;;;;;;1691045;28;21512;-53
2022/02/28 04:26:36;;;;;;;3.30;1.83;;;;;;;;;;1693805;28;21665;-53
2022/02/28 04:27:27;;;;;;;1.85;1.30;;;;;;;;;;1691787;28;21567;-52
2022/02/28 04:28:19;;;;;;;6.10;1.73;;;;;;;;;;1691103;29;22028;-53
2022/02/28 04:29:12;;;;;;;5.03;1.42;;;;;;;;;;1690962;28;21577;-51
2022/02/28 04:30:06;;;;;;;1.63;1.48;;;;;;;;;;1694055;28;21603;-51
2022/02/28 04:30:57;;;;;;;3.03;1.65;;;;;;;;;;1691177;28;21559;-52
2022/02/28 04:31:50;;;;;;;5.13;1.40;;;;;;;;;;1693513;28;22088;-51
2022/02/28 04:32:42;;;;;;;4.05;2.00;;;;;;;;;;1691724;28;21579;-50
2022/02/28 04:33:34;;;;;;;1.67;1.58;;;;;;;;;;1691132;28;21539;-50
2022/02/28 04:34:25;;;;;;;6.13;1.67;;;;;;;;;;1693657;28;21534;-53
2022/02/28 04:35:17;;;;;;;4.03;1.83;;;;;;;;;;1691851;28;21651;-51
2022/02/28 04:36:09;;;;;;;9.32;1.77;;;;;;;;;;1690533;28;21595;-53
2022/02/28 04:37:01;;;;;;;8.85;1.70;;;;;;;;;;1692922;28;21671;-53
2022/02/28 04:37:52;;;;;;;5.22;2.10;;;;;;;;;;1691983;28;21992;-52
2022/02/28 04:38:45;;;;;;;3.03;2.08;;;;;;;;;;1691862;28;21590;-53
2022/02/28 04:39:36;;;;;;;5.75;1.92;;;;;;;;;;1691075;29;21601;-53
2022/02/28 04:40:28;;;;;;;3.40;1.88;;;;;;;;;;1690749;28;21881;-52
2022/02/28 04:41:21;;;;;;;4.55;1.85;;;;;;;;;;1693884;28;21523;-51
2022/02/28 04:42:13;;;;;;;3.53;1.80;;;;;;;;;;1690845;29;21569;-53
2022/02/28 04:43:05;;;;;;;7.63;1.83;;;;;;;;;;1691679;28;22075;-50
2022/02/28 04:43:57;;;;;;;4.90;1.83;;;;;;;;;;1690495;28;21530;-52
2022/02/28 04:44:48;;;;;;;4.30;1.73;;;;;;;;;;1692488;28;22212;-52
2022/02/28 04:45:41;;;;;;;4.05;1.90;;;;;;;;;;1696505;28;21519;-52
2022/02/28 04:46:32;;;;;;;6.30;2.45;;;;;;;;;;1696445;28;21784;-53
2022/02/28 04:47:24;;;;;;;3.58;1.85;;;;;;;;;;1697495;28;21536;-54
2022/02/28 04:48:15;;;;;;;6.30;1.63;;;;;;;;;;1695609;28;21579;-52
2022/02/28 04:49:08;;;;;;;7.25;1.77;;;;;;;;;;1692952;28;21705;-54
2022/02/28 04:49:59;;;;;;;6.63;2.10;;;;;;;;;;1690863;29;22213;-53
2022/02/28 04:50:55;;;;;;;8.68;2.17;;;;;;;;;;1691533;28;21600;-51
2022/02/28 04:51:46;;;;;;;6.32;2.05;;;;;;;;;;1693905;28;21559;-53
2022/02/28 04:52:38;;;;;;;2.88;1.90;;;;;;;;;;1693200;28;22111;-54
2022/02/28 04:53:30;;;;;;;7.25;2.85;;;;;;;;;;1696450;28;21559;-53
2022/02/28 04:54:22;;;;;;;9.75;2.08;;;;;;;;;;1693558;28;22249;-53
2022/02/28 04:55:13;;;;;;;3.50;1.90;;;;;;;;;;1690918;29;21550;-53
2022/02/28 04:56:05;;;;;;;5.53;2.10;;;;;;;;;;1690634;28;21924;-53
2022/02/28 04:56:58;;;;;;;8.07;1.80;;;;;;;;;;1693959;28;21508;-52
2022/02/28 04:57:51;;;;;;;12.10;1.80;;;;;;;;;;1690809;29;22111;-51
2022/02/28 04:58:42;;;;;;;8.07;1.75;;;;;;;;;;1691759;28;21563;-53
2022/02/28 04:59:34;;;;;;;8.27;1.98;;;;;;;;;;1693928;28;22141;-53
2022/02/28 05:00:25;;;;;;;4.45;1.55;;;;;;;;;;1690653;28;21963;-52
2022/02/28 05:01:18;;;;;;;9.50;1.73;;;;;;;;;;1692734;28;21591;-53
2022/02/28 05:02:09;;;;;;;8.50;1.85;;;;;;;;;;1693225;28;22051;-54
2022/02/28 05:03:01;;;;;;;2.25;1.83;;;;;;;;;;1691552;28;21568;-51
2022/02/28 05:03:52;;;;;;;5.75;1.95;;;;;;;;;;1691573;28;21560;-53
2022/02/28 05:04:44;;;;;;;7.80;2.28;;;;;;;;;;1690885;29;21574;-52
2022/02/28 05:05:36;;;;;;;4.80;2.03;;;;;;;;;;1690774;28;21633;-53
2022/02/28 05:06:28;;;;;;;5.90;1.70;;;;;;;;;;1694257;28;21537;-54
2022/02/28 05:07:19;;;;;;;5.30;2.30;;;;;;;;;;1696235;28;21516;-53
2022/02/28 05:08:11;;;;;;;3.33;1.83;;;;;;;;;;1697359;28;21606;-53
2022/02/28 05:09:03;;;;;;;5.75;2.38;;;;;;;;;;1697175;28;21606;-51
2022/02/28 05:09:55;;;;;;;6.18;1.60;;;;;;;;;;1693443;28;22171;-51
2022/02/28 05:10:46;;;;;;;7.57;2.00;;;;;;;;;;1692180;28;21551;-54
2022/02/28 05:11:38;;;;;;;2.50;1.77;;;;;;;;;;1693919;28;21513;-53
2022/02/28 05:12:31;;;;;;;4.35;2.25;;;;;;;;;;1691348;28;21580;-53